sensor_id;sensor_type;location;lat;lon;timestamp;temperature;humidity
14473;DHT22;7322;50.872;4.386;2022-11-20T00:02:18;4.70;1.00
14473;DHT22;7322;50.872;4.386;2022-11-20T00:05:08;4.90;1.00
14473;DHT22;7322;50.872;4.386;2022-11-20T00:07:40;4.80;99.90
14473;DHT22;7322;50.872;4.386;2022-11-20T00:10:24;4.80;99.90
14473;DHT22;7322;50.872;4.386;2022-11-20T00:12:59;5.00;1.00
14473;DHT22;7322;50.872;4.386;2022-11-20T00:15:31;5.00;1.00
14473;DHT22;7322;50.872;4.386;2022-11-20T00:18:13;5.00;24.60
14473;DHT22;7322;50.872;4.386;2022-11-20T00:20:42;5.20;99.90
14473;DHT22;7322;50.872;4.386;2022-11-20T00:23:20;5.20;1.00
14473;DHT22;7322;50.872;4.386;2022-11-20T00:26:05;5.30;1.00
14473;DHT22;7322;50.872;4.386;2022-11-20T00:28:35;5.30;99.90
14473;DHT22;7322;50.872;4.386;2022-11-20T00:31:05;5.20;99.90
14473;DHT22;7322;50.872;4.386;2022-11-20T00:33:37;5.20;1.00
14473;DHT22;7322;50.872;4.386;2022-11-20T00:36:18;5.30;1.00
14473;DHT22;7322;50.872;4.386;2022-11-20T00:39:00;5.20;1.00
14473;DHT22;7322;50.872;4.386;2022-11-20T00:41:38;5.40;99.90
14473;DHT22;7322;50.872;4.386;2022-11-20T00:44:31;5.30;1.00
14473;DHT22;7322;50.872;4.386;2022-11-20T00:47:04;5.30;1.00
14473;DHT22;7322;50.872;4.386;2022-11-20T00:49:31;5.00;99.90
14473;DHT22;7322;50.872;4.386;2022-11-20T00:51:59;4.70;1.00
14473;DHT22;7322;50.872;4.386;2022-11-20T00:54:52;4.60;99.90
14473;DHT22;7322;50.872;4.386;2022-11-20T00:57:20;4.60;1.00
14473;DHT22;7322;50.872;4.386;2022-11-20T00:59:48;4.70;1.00
14473;DHT22;7322;50.872;4.386;2022-11-20T01:02:16;4.80;1.00
14473;DHT22;7322;50.872;4.386;2022-11-20T01:04:44;4.60;1.00
14473;DHT22;7322;50.872;4.386;2022-11-20T01:07:14;4.70;26.50
14473;DHT22;7322;50.872;4.386;2022-11-20T01:09:42;4.80;1.00
14473;DHT22;7322;50.872;4.386;2022-11-20T01:12:13;4.90;1.00
14473;DHT22;7322;50.872;4.386;2022-11-20T01:14:48;4.90;1.00
14473;DHT22;7322;50.872;4.386;2022-11-20T01:17:15;5.00;23.90
14473;DHT22;7322;50.872;4.386;2022-11-20T01:19:51;5.10;1.00
14473;DHT22;7322;50.872;4.386;2022-11-20T01:22:31;5.10;1.00
14473;DHT22;7322;50.872;4.386;2022-11-20T01:31:45;4.90;1.00
14473;DHT22;7322;50.872;4.386;2022-11-20T01:34:14;4.90;1.00
14473;DHT22;7322;50.872;4.386;2022-11-20T01:50:05;5.30;99.90
14473;DHT22;7322;50.872;4.386;2022-11-20T01:52:36;5.40;99.90
14473;DHT22;7322;50.872;4.386;2022-11-20T01:55:13;5.40;90.30
14473;DHT22;7322;50.872;4.386;2022-11-20T01:57:45;5.50;99.90
14473;DHT22;7322;50.872;4.386;2022-11-20T02:00:15;5.40;99.90
14473;DHT22;7322;50.872;4.386;2022-11-20T02:02:52;5.20;99.90
14473;DHT22;7322;50.872;4.386;2022-11-20T02:05:25;5.10;99.90
14473;DHT22;7322;50.872;4.386;2022-11-20T02:07:56;5.20;1.00
14473;DHT22;7322;50.872;4.386;2022-11-20T02:10:26;5.10;99.90
14473;DHT22;7322;50.872;4.386;2022-11-20T02:13:10;5.30;99.90
14473;DHT22;7322;50.872;4.386;2022-11-20T02:16:08;5.30;99.90
14473;DHT22;7322;50.872;4.386;2022-11-20T02:18:45;5.40;99.90
14473;DHT22;7322;50.872;4.386;2022-11-20T02:21:34;5.40;99.90
14473;DHT22;7322;50.872;4.386;2022-11-20T02:24:12;5.50;99.90
14473;DHT22;7322;50.872;4.386;2022-11-20T02:26:53;5.50;99.90
14473;DHT22;7322;50.872;4.386;2022-11-20T02:29:25;5.70;99.90
14473;DHT22;7322;50.872;4.386;2022-11-20T02:32:18;5.60;99.90
14473;DHT22;7322;50.872;4.386;2022-11-20T02:34:45;5.30;99.90
14473;DHT22;7322;50.872;4.386;2022-11-20T02:37:20;5.30;1.00
14473;DHT22;7322;50.872;4.386;2022-11-20T02:40:08;5.40;99.90
14473;DHT22;7322;50.872;4.386;2022-11-20T02:43:03;5.80;99.90
14473;DHT22;7322;50.872;4.386;2022-11-20T02:45:43;5.70;99.90
14473;DHT22;7322;50.872;4.386;2022-11-20T02:48:10;5.40;99.90
14473;DHT22;7322;50.872;4.386;2022-11-20T02:50:49;5.40;95.10
14473;DHT22;7322;50.872;4.386;2022-11-20T02:53:28;5.30;99.90
14473;DHT22;7322;50.872;4.386;2022-11-20T02:56:05;5.40;99.90
14473;DHT22;7322;50.872;4.386;2022-11-20T02:58:35;5.20;99.90
14473;DHT22;7322;50.872;4.386;2022-11-20T03:01:23;5.10;99.90
14473;DHT22;7322;50.872;4.386;2022-11-20T03:03:51;5.00;99.90
14473;DHT22;7322;50.872;4.386;2022-11-20T03:06:21;4.90;1.00
14473;DHT22;7322;50.872;4.386;2022-11-20T03:08:56;4.90;1.00
14473;DHT22;7322;50.872;4.386;2022-11-20T03:11:32;5.00;1.00
14473;DHT22;7322;50.872;4.386;2022-11-20T03:14:12;5.00;99.90
14473;DHT22;7322;50.872;4.386;2022-11-20T03:16:45;5.20;99.90
14473;DHT22;7322;50.872;4.386;2022-11-20T03:29:09;5.20;1.00
14473;DHT22;7322;50.872;4.386;2022-11-20T03:31:38;5.10;99.90
14473;DHT22;7322;50.872;4.386;2022-11-20T03:34:14;5.30;99.90
14473;DHT22;7322;50.872;4.386;2022-11-20T03:36:48;5.20;99.90
14473;DHT22;7322;50.872;4.386;2022-11-20T03:39:25;5.10;1.00
14473;DHT22;7322;50.872;4.386;2022-11-20T03:42:03;5.10;1.00
14473;DHT22;7322;50.872;4.386;2022-11-20T03:44:58;5.40;99.90
14473;DHT22;7322;50.872;4.386;2022-11-20T03:47:27;5.30;1.00
14473;DHT22;7322;50.872;4.386;2022-11-20T03:50:17;5.30;1.00
14473;DHT22;7322;50.872;4.386;2022-11-20T03:52:52;5.30;1.00
14473;DHT22;7322;50.872;4.386;2022-11-20T03:55:29;5.30;1.00
14473;DHT22;7322;50.872;4.386;2022-11-20T03:57:58;5.50;1.00
14473;DHT22;7322;50.872;4.386;2022-11-20T04:00:31;5.70;1.00
14473;DHT22;7322;50.872;4.386;2022-11-20T04:03:16;5.60;30.00
14473;DHT22;7322;50.872;4.386;2022-11-20T04:05:46;5.50;1.00
14473;DHT22;7322;50.872;4.386;2022-11-20T04:08:16;5.50;70.50
14473;DHT22;7322;50.872;4.386;2022-11-20T04:10:46;5.50;1.00
14473;DHT22;7322;50.872;4.386;2022-11-20T04:13:18;5.40;1.00
14473;DHT22;7322;50.872;4.386;2022-11-20T04:16:17;5.60;1.00
14473;DHT22;7322;50.872;4.386;2022-11-20T04:18:56;5.50;98.00
14473;DHT22;7322;50.872;4.386;2022-11-20T04:21:46;5.40;1.00
14473;DHT22;7322;50.872;4.386;2022-11-20T04:24:19;5.50;78.80
14473;DHT22;7322;50.872;4.386;2022-11-20T04:26:46;5.60;99.90
14473;DHT22;7322;50.872;4.386;2022-11-20T04:29:15;5.70;52.00
14473;DHT22;7322;50.872;4.386;2022-11-20T04:31:44;5.80;1.00
14473;DHT22;7322;50.872;4.386;2022-11-20T04:34:12;6.00;1.00
14473;DHT22;7322;50.872;4.386;2022-11-20T04:36:40;6.20;1.00
14473;DHT22;7322;50.872;4.386;2022-11-20T04:39:15;6.00;54.60
14473;DHT22;7322;50.872;4.386;2022-11-20T04:41:43;6.00;1.00
14473;DHT22;7322;50.872;4.386;2022-11-20T04:44:11;6.00;1.00
14473;DHT22;7322;50.872;4.386;2022-11-20T04:46:49;5.90;1.00
14473;DHT22;7322;50.872;4.386;2022-11-20T04:49:17;5.80;1.00
14473;DHT22;7322;50.872;4.386;2022-11-20T04:51:44;5.90;34.00
14473;DHT22;7322;50.872;4.386;2022-11-20T04:54:12;6.00;39.50
14473;DHT22;7322;50.872;4.386;2022-11-20T04:56:42;6.20;1.00
14473;DHT22;7322;50.872;4.386;2022-11-20T04:59:10;6.20;1.00
14473;DHT22;7322;50.872;4.386;2022-11-20T05:01:40;6.30;1.00
14473;DHT22;7322;50.872;4.386;2022-11-20T05:04:32;6.30;1.00
14473;DHT22;7322;50.872;4.386;2022-11-20T05:07:11;6.50;1.00
14473;DHT22;7322;50.872;4.386;2022-11-20T05:09:49;6.60;24.70
14473;DHT22;7322;50.872;4.386;2022-11-20T05:12:32;6.50;17.90
14473;DHT22;7322;50.872;4.386;2022-11-20T05:15:35;6.50;1.00
14473;DHT22;7322;50.872;4.386;2022-11-20T05:18:03;6.50;1.00
14473;DHT22;7322;50.872;4.386;2022-11-20T05:20:36;6.40;1.00
14473;DHT22;7322;50.872;4.386;2022-11-20T05:23:03;6.50;1.00
14473;DHT22;7322;50.872;4.386;2022-11-20T05:25:31;6.50;1.00
14473;DHT22;7322;50.872;4.386;2022-11-20T05:27:59;6.40;1.00
14473;DHT22;7322;50.872;4.386;2022-11-20T05:30:27;6.50;1.00
14473;DHT22;7322;50.872;4.386;2022-11-20T05:32:55;6.50;99.90
14473;DHT22;7322;50.872;4.386;2022-11-20T05:35:36;6.50;99.90
14473;DHT22;7322;50.872;4.386;2022-11-20T05:38:16;6.60;1.00
14473;DHT22;7322;50.872;4.386;2022-11-20T05:41:04;6.60;99.90
14473;DHT22;7322;50.872;4.386;2022-11-20T05:43:32;6.70;99.90
14473;DHT22;7322;50.872;4.386;2022-11-20T05:46:03;6.70;99.90
14473;DHT22;7322;50.872;4.386;2022-11-20T05:48:34;6.70;1.00
14473;DHT22;7322;50.872;4.386;2022-11-20T05:51:05;6.70;1.00
14473;DHT22;7322;50.872;4.386;2022-11-20T05:53:33;6.70;1.00
14473;DHT22;7322;50.872;4.386;2022-11-20T05:56:19;6.70;99.90
14473;DHT22;7322;50.872;4.386;2022-11-20T05:58:48;6.60;99.90
14473;DHT22;7322;50.872;4.386;2022-11-20T06:01:19;6.60;99.90
14473;DHT22;7322;50.872;4.386;2022-11-20T06:03:47;6.60;1.00
14473;DHT22;7322;50.872;4.386;2022-11-20T06:06:35;6.60;70.10
14473;DHT22;7322;50.872;4.386;2022-11-20T06:09:16;6.70;99.90
14473;DHT22;7322;50.872;4.386;2022-11-20T06:11:46;6.70;1.00
14473;DHT22;7322;50.872;4.386;2022-11-20T06:14:21;6.70;99.90
14473;DHT22;7322;50.872;4.386;2022-11-20T06:16:48;6.60;99.90
14473;DHT22;7322;50.872;4.386;2022-11-20T06:19:17;6.50;99.90
14473;DHT22;7322;50.872;4.386;2022-11-20T06:21:47;6.50;1.00
14473;DHT22;7322;50.872;4.386;2022-11-20T06:24:16;6.50;99.90
14473;DHT22;7322;50.872;4.386;2022-11-20T06:26:48;6.40;99.90
14473;DHT22;7322;50.872;4.386;2022-11-20T06:29:32;6.50;99.90
14473;DHT22;7322;50.872;4.386;2022-11-20T06:32:00;6.50;1.00
14473;DHT22;7322;50.872;4.386;2022-11-20T06:34:31;6.60;1.00
14473;DHT22;7322;50.872;4.386;2022-11-20T06:40:06;6.80;99.90
14473;DHT22;7322;50.872;4.386;2022-11-20T06:42:53;6.80;99.90
14473;DHT22;7322;50.872;4.386;2022-11-20T06:45:57;6.70;99.90
14473;DHT22;7322;50.872;4.386;2022-11-20T06:48:27;6.70;1.00
14473;DHT22;7322;50.872;4.386;2022-11-20T06:51:11;6.70;1.00
14473;DHT22;7322;50.872;4.386;2022-11-20T06:53:39;6.70;1.00
14473;DHT22;7322;50.872;4.386;2022-11-20T06:56:09;6.90;1.00
14473;DHT22;7322;50.872;4.386;2022-11-20T06:58:51;6.70;1.00
14473;DHT22;7322;50.872;4.386;2022-11-20T07:01:26;6.70;1.00
14473;DHT22;7322;50.872;4.386;2022-11-20T07:03:57;6.90;40.20
14473;DHT22;7322;50.872;4.386;2022-11-20T07:06:31;6.90;90.70
14473;DHT22;7322;50.872;4.386;2022-11-20T07:09:20;7.00;1.00
14473;DHT22;7322;50.872;4.386;2022-11-20T07:11:59;7.10;99.90
14473;DHT22;7322;50.872;4.386;2022-11-20T07:14:27;6.90;99.90
14473;DHT22;7322;50.872;4.386;2022-11-20T07:16:57;6.90;1.00
14473;DHT22;7322;50.872;4.386;2022-11-20T07:19:33;6.80;1.00
14473;DHT22;7322;50.872;4.386;2022-11-20T07:22:10;7.00;1.00
14473;DHT22;7322;50.872;4.386;2022-11-20T07:24:46;7.10;1.00
14473;DHT22;7322;50.872;4.386;2022-11-20T07:27:16;6.90;1.00
14473;DHT22;7322;50.872;4.386;2022-11-20T07:29:44;7.00;1.00
14473;DHT22;7322;50.872;4.386;2022-11-20T07:32:16;7.00;24.00
14473;DHT22;7322;50.872;4.386;2022-11-20T07:35:07;7.20;1.00
14473;DHT22;7322;50.872;4.386;2022-11-20T07:37:41;7.30;99.90
14473;DHT22;7322;50.872;4.386;2022-11-20T07:40:23;7.40;1.00
14473;DHT22;7322;50.872;4.386;2022-11-20T07:42:54;7.40;1.00
14473;DHT22;7322;50.872;4.386;2022-11-20T07:55:20;7.60;99.90
14473;DHT22;7322;50.872;4.386;2022-11-20T07:58:20;7.70;1.00
14473;DHT22;7322;50.872;4.386;2022-11-20T08:01:06;7.70;1.00
14473;DHT22;7322;50.872;4.386;2022-11-20T08:03:39;7.50;99.90
14473;DHT22;7322;50.872;4.386;2022-11-20T08:06:15;7.50;99.90
14473;DHT22;7322;50.872;4.386;2022-11-20T08:09:04;7.50;1.00
14473;DHT22;7322;50.872;4.386;2022-11-20T08:11:51;7.60;1.00
14473;DHT22;7322;50.872;4.386;2022-11-20T08:14:41;7.50;1.00
14473;DHT22;7322;50.872;4.386;2022-11-20T08:17:08;7.60;1.00
14473;DHT22;7322;50.872;4.386;2022-11-20T08:19:55;7.60;1.00
14473;DHT22;7322;50.872;4.386;2022-11-20T08:22:43;7.80;1.00
14473;DHT22;7322;50.872;4.386;2022-11-20T08:25:13;7.90;1.00
14473;DHT22;7322;50.872;4.386;2022-11-20T08:27:40;8.10;1.00
14473;DHT22;7322;50.872;4.386;2022-11-20T08:30:15;8.30;1.00
14473;DHT22;7322;50.872;4.386;2022-11-20T08:32:54;8.30;99.90
14473;DHT22;7322;50.872;4.386;2022-11-20T08:35:41;8.30;99.90
14473;DHT22;7322;50.872;4.386;2022-11-20T08:38:15;8.40;1.00
14473;DHT22;7322;50.872;4.386;2022-11-20T08:40:45;8.50;1.00
14473;DHT22;7322;50.872;4.386;2022-11-20T08:43:51;8.50;99.90
14473;DHT22;7322;50.872;4.386;2022-11-20T08:46:30;8.70;48.80
14473;DHT22;7322;50.872;4.386;2022-11-20T08:49:17;8.70;1.00
14473;DHT22;7322;50.872;4.386;2022-11-20T08:51:45;8.70;1.00
14473;DHT22;7322;50.872;4.386;2022-11-20T08:54:18;8.80;1.60
14473;DHT22;7322;50.872;4.386;2022-11-20T08:56:48;8.90;1.00
14473;DHT22;7322;50.872;4.386;2022-11-20T08:59:15;8.90;1.00
14473;DHT22;7322;50.872;4.386;2022-11-20T09:01:48;9.00;1.00
14473;DHT22;7322;50.872;4.386;2022-11-20T09:04:16;9.00;1.00
14473;DHT22;7322;50.872;4.386;2022-11-20T09:06:45;9.00;1.00
14473;DHT22;7322;50.872;4.386;2022-11-20T09:09:16;9.10;53.10
14473;DHT22;7322;50.872;4.386;2022-11-20T09:11:44;9.20;1.00
14473;DHT22;7322;50.872;4.386;2022-11-20T09:14:18;9.30;99.90
14473;DHT22;7322;50.872;4.386;2022-11-20T09:16:52;9.30;99.90
14473;DHT22;7322;50.872;4.386;2022-11-20T09:19:23;9.40;1.00
14473;DHT22;7322;50.872;4.386;2022-11-20T09:21:50;9.50;1.00
14473;DHT22;7322;50.872;4.386;2022-11-20T09:24:20;9.50;1.00
14473;DHT22;7322;50.872;4.386;2022-11-20T09:26:47;9.30;1.30
14473;DHT22;7322;50.872;4.386;2022-11-20T09:29:15;9.20;1.00
14473;DHT22;7322;50.872;4.386;2022-11-20T09:31:42;9.20;99.90
14473;DHT22;7322;50.872;4.386;2022-11-20T09:34:17;9.30;99.90
14473;DHT22;7322;50.872;4.386;2022-11-20T09:36:44;9.50;99.90
14473;DHT22;7322;50.872;4.386;2022-11-20T09:39:11;9.60;1.00
14473;DHT22;7322;50.872;4.386;2022-11-20T09:42:03;9.70;1.00
14473;DHT22;7322;50.872;4.386;2022-11-20T09:44:52;9.80;27.30
14473;DHT22;7322;50.872;4.386;2022-11-20T09:47:30;9.70;1.00
14473;DHT22;7322;50.872;4.386;2022-11-20T09:50:12;9.90;99.90
14473;DHT22;7322;50.872;4.386;2022-11-20T09:52:49;10.10;97.30
14473;DHT22;7322;50.872;4.386;2022-11-20T09:55:20;10.20;98.30
14473;DHT22;7322;50.872;4.386;2022-11-20T09:57:51;10.30;99.90
14473;DHT22;7322;50.872;4.386;2022-11-20T10:00:19;10.30;99.90
14473;DHT22;7322;50.872;4.386;2022-11-20T10:03:01;10.30;99.90
14473;DHT22;7322;50.872;4.386;2022-11-20T10:05:33;10.40;99.90
14473;DHT22;7322;50.872;4.386;2022-11-20T10:08:10;10.50;99.90
14473;DHT22;7322;50.872;4.386;2022-11-20T10:10:45;10.50;99.90
14473;DHT22;7322;50.872;4.386;2022-11-20T10:13:24;10.50;99.90
14473;DHT22;7322;50.872;4.386;2022-11-20T10:16:06;10.40;99.90
14473;DHT22;7322;50.872;4.386;2022-11-20T10:18:48;10.40;99.90
14473;DHT22;7322;50.872;4.386;2022-11-20T10:21:30;10.50;99.90
14473;DHT22;7322;50.872;4.386;2022-11-20T10:27:06;10.60;99.90
14473;DHT22;7322;50.872;4.386;2022-11-20T10:29:40;10.80;99.90
14473;DHT22;7322;50.872;4.386;2022-11-20T10:32:13;11.00;99.90
14473;DHT22;7322;50.872;4.386;2022-11-20T10:34:50;11.30;99.90
14473;DHT22;7322;50.872;4.386;2022-11-20T10:37:26;11.30;99.90
14473;DHT22;7322;50.872;4.386;2022-11-20T10:40:00;11.10;99.90
14473;DHT22;7322;50.872;4.386;2022-11-20T10:42:38;11.20;99.90
14473;DHT22;7322;50.872;4.386;2022-11-20T10:45:15;11.30;99.90
14473;DHT22;7322;50.872;4.386;2022-11-20T10:47:51;11.40;99.90
14473;DHT22;7322;50.872;4.386;2022-11-20T10:50:21;11.40;99.90
14473;DHT22;7322;50.872;4.386;2022-11-20T10:53:02;11.50;99.90
14473;DHT22;7322;50.872;4.386;2022-11-20T10:55:39;11.60;99.90
14473;DHT22;7322;50.872;4.386;2022-11-20T10:58:13;11.60;99.90
14473;DHT22;7322;50.872;4.386;2022-11-20T11:00:42;11.60;99.90
14473;DHT22;7322;50.872;4.386;2022-11-20T11:03:20;11.40;99.90
14473;DHT22;7322;50.872;4.386;2022-11-20T11:05:51;11.30;99.90
14473;DHT22;7322;50.872;4.386;2022-11-20T11:08:36;11.20;99.90
14473;DHT22;7322;50.872;4.386;2022-11-20T11:11:18;11.10;99.90
14473;DHT22;7322;50.872;4.386;2022-11-20T11:14:04;11.30;99.90
14473;DHT22;7322;50.872;4.386;2022-11-20T11:16:33;11.20;99.90
14473;DHT22;7322;50.872;4.386;2022-11-20T11:19:12;11.10;99.90
14473;DHT22;7322;50.872;4.386;2022-11-20T11:21:46;11.00;99.90
14473;DHT22;7322;50.872;4.386;2022-11-20T11:24:29;11.00;99.90
14473;DHT22;7322;50.872;4.386;2022-11-20T11:27:01;10.90;99.90
14473;DHT22;7322;50.872;4.386;2022-11-20T11:29:31;10.90;99.90
14473;DHT22;7322;50.872;4.386;2022-11-20T11:32:05;10.90;99.90
14473;DHT22;7322;50.872;4.386;2022-11-20T11:34:33;11.00;99.90
14473;DHT22;7322;50.872;4.386;2022-11-20T11:37:02;11.20;99.90
14473;DHT22;7322;50.872;4.386;2022-11-20T11:39:33;11.50;99.90
14473;DHT22;7322;50.872;4.386;2022-11-20T11:42:01;11.40;99.90
14473;DHT22;7322;50.872;4.386;2022-11-20T11:44:31;11.40;99.90
14473;DHT22;7322;50.872;4.386;2022-11-20T11:47:22;11.10;99.90
14473;DHT22;7322;50.872;4.386;2022-11-20T11:50:02;10.80;99.90
14473;DHT22;7322;50.872;4.386;2022-11-20T11:52:31;10.80;99.90
14473;DHT22;7322;50.872;4.386;2022-11-20T11:55:10;10.90;99.90
14473;DHT22;7322;50.872;4.386;2022-11-20T11:57:45;10.80;99.90
14473;DHT22;7322;50.872;4.386;2022-11-20T12:00:16;10.90;99.90
14473;DHT22;7322;50.872;4.386;2022-11-20T12:02:56;10.80;99.90
14473;DHT22;7322;50.872;4.386;2022-11-20T12:05:29;10.70;99.90
14473;DHT22;7322;50.872;4.386;2022-11-20T12:08:01;10.70;99.90
14473;DHT22;7322;50.872;4.386;2022-11-20T12:10:46;10.50;99.90
14473;DHT22;7322;50.872;4.386;2022-11-20T12:13:22;10.30;99.90
14473;DHT22;7322;50.872;4.386;2022-11-20T12:15:55;10.20;99.90
14473;DHT22;7322;50.872;4.386;2022-11-20T12:18:38;10.10;99.90
14473;DHT22;7322;50.872;4.386;2022-11-20T12:21:17;9.90;99.90
14473;DHT22;7322;50.872;4.386;2022-11-20T12:23:53;9.60;99.90
14473;DHT22;7322;50.872;4.386;2022-11-20T12:29:41;9.40;99.90
14473;DHT22;7322;50.872;4.386;2022-11-20T12:32:31;9.40;99.90
14473;DHT22;7322;50.872;4.386;2022-11-20T12:35:21;9.40;99.90
14473;DHT22;7322;50.872;4.386;2022-11-20T12:37:59;9.30;99.90
14473;DHT22;7322;50.872;4.386;2022-11-20T12:40:38;9.10;99.90
14473;DHT22;7322;50.872;4.386;2022-11-20T12:43:15;9.10;99.90
14473;DHT22;7322;50.872;4.386;2022-11-20T12:46:29;9.00;99.90
14473;DHT22;7322;50.872;4.386;2022-11-20T12:49:14;9.10;99.90
14473;DHT22;7322;50.872;4.386;2022-11-20T12:52:03;9.20;99.90
14473;DHT22;7322;50.872;4.386;2022-11-20T12:57:54;9.30;99.90
14473;DHT22;7322;50.872;4.386;2022-11-20T13:00:24;9.30;99.90
14473;DHT22;7322;50.872;4.386;2022-11-20T13:03:23;9.20;99.90
14473;DHT22;7322;50.872;4.386;2022-11-20T13:06:00;9.20;99.90
14473;DHT22;7322;50.872;4.386;2022-11-20T13:08:34;9.40;99.90
14473;DHT22;7322;50.872;4.386;2022-11-20T13:11:09;9.50;99.90
14473;DHT22;7322;50.872;4.386;2022-11-20T13:13:59;9.50;99.90
14473;DHT22;7322;50.872;4.386;2022-11-20T13:16:35;9.50;99.90
14473;DHT22;7322;50.872;4.386;2022-11-20T13:19:10;9.60;99.90
14473;DHT22;7322;50.872;4.386;2022-11-20T13:21:41;9.60;99.90
14473;DHT22;7322;50.872;4.386;2022-11-20T13:24:22;9.40;99.90
14473;DHT22;7322;50.872;4.386;2022-11-20T13:27:01;9.30;99.90
14473;DHT22;7322;50.872;4.386;2022-11-20T13:29:31;9.10;99.90
14473;DHT22;7322;50.872;4.386;2022-11-20T13:32:04;9.10;99.90
14473;DHT22;7322;50.872;4.386;2022-11-20T13:34:36;9.10;99.90
14473;DHT22;7322;50.872;4.386;2022-11-20T13:37:03;9.00;99.90
14473;DHT22;7322;50.872;4.386;2022-11-20T13:39:31;9.00;99.90
14473;DHT22;7322;50.872;4.386;2022-11-20T13:42:00;9.00;99.90
14473;DHT22;7322;50.872;4.386;2022-11-20T13:44:36;9.00;99.90
14473;DHT22;7322;50.872;4.386;2022-11-20T13:47:20;9.20;99.90
14473;DHT22;7322;50.872;4.386;2022-11-20T13:49:49;9.10;99.90
14473;DHT22;7322;50.872;4.386;2022-11-20T13:52:42;9.10;99.90
14473;DHT22;7322;50.872;4.386;2022-11-20T13:55:18;9.00;99.90
14473;DHT22;7322;50.872;4.386;2022-11-20T13:58:12;9.00;99.90
14473;DHT22;7322;50.872;4.386;2022-11-20T14:00:50;9.00;99.90
14473;DHT22;7322;50.872;4.386;2022-11-20T14:03:23;9.10;99.90
14473;DHT22;7322;50.872;4.386;2022-11-20T14:05:55;9.10;99.90
14473;DHT22;7322;50.872;4.386;2022-11-20T14:08:35;9.20;99.90
14473;DHT22;7322;50.872;4.386;2022-11-20T14:11:06;9.40;99.90
14473;DHT22;7322;50.872;4.386;2022-11-20T14:13:33;9.20;99.90
14473;DHT22;7322;50.872;4.386;2022-11-20T14:16:00;8.90;99.90
14473;DHT22;7322;50.872;4.386;2022-11-20T14:18:36;8.80;99.90
14473;DHT22;7322;50.872;4.386;2022-11-20T14:21:09;8.80;99.90
14473;DHT22;7322;50.872;4.386;2022-11-20T14:23:36;8.60;99.90
14473;DHT22;7322;50.872;4.386;2022-11-20T14:26:06;8.50;99.90
14473;DHT22;7322;50.872;4.386;2022-11-20T14:28:48;8.60;99.90
14473;DHT22;7322;50.872;4.386;2022-11-20T14:31:22;8.40;99.90
14473;DHT22;7322;50.872;4.386;2022-11-20T14:33:54;8.50;99.90
14473;DHT22;7322;50.872;4.386;2022-11-20T14:36:24;8.40;99.90
14473;DHT22;7322;50.872;4.386;2022-11-20T14:38:54;8.40;99.90
14473;DHT22;7322;50.872;4.386;2022-11-20T14:41:23;8.40;99.90
14473;DHT22;7322;50.872;4.386;2022-11-20T14:43:54;8.40;99.90
14473;DHT22;7322;50.872;4.386;2022-11-20T14:46:25;8.40;99.90
14473;DHT22;7322;50.872;4.386;2022-11-20T14:49:02;8.40;99.90
14473;DHT22;7322;50.872;4.386;2022-11-20T14:51:36;8.40;99.90
14473;DHT22;7322;50.872;4.386;2022-11-20T14:54:16;8.40;99.90
14473;DHT22;7322;50.872;4.386;2022-11-20T14:56:53;8.40;99.90
14473;DHT22;7322;50.872;4.386;2022-11-20T14:59:23;8.40;99.90
14473;DHT22;7322;50.872;4.386;2022-11-20T15:02:05;8.40;99.90
14473;DHT22;7322;50.872;4.386;2022-11-20T15:04:45;8.40;99.90
14473;DHT22;7322;50.872;4.386;2022-11-20T15:07:28;8.40;99.90
14473;DHT22;7322;50.872;4.386;2022-11-20T15:10:04;8.50;99.90
14473;DHT22;7322;50.872;4.386;2022-11-20T15:12:34;8.50;99.90
14473;DHT22;7322;50.872;4.386;2022-11-20T15:15:05;8.50;99.90
14473;DHT22;7322;50.872;4.386;2022-11-20T15:17:35;8.50;99.90
14473;DHT22;7322;50.872;4.386;2022-11-20T15:20:13;8.50;99.90
14473;DHT22;7322;50.872;4.386;2022-11-20T15:23:00;8.60;99.90
14473;DHT22;7322;50.872;4.386;2022-11-20T15:25:51;8.60;99.90
14473;DHT22;7322;50.872;4.386;2022-11-20T15:28:56;8.60;99.90
14473;DHT22;7322;50.872;4.386;2022-11-20T15:31:38;8.60;99.90
14473;DHT22;7322;50.872;4.386;2022-11-20T15:34:20;8.70;99.90
14473;DHT22;7322;50.872;4.386;2022-11-20T15:37:03;8.60;99.90
14473;DHT22;7322;50.872;4.386;2022-11-20T15:39:38;8.60;99.90
14473;DHT22;7322;50.872;4.386;2022-11-20T15:42:20;8.70;99.90
14473;DHT22;7322;50.872;4.386;2022-11-20T15:44:58;8.70;99.90
14473;DHT22;7322;50.872;4.386;2022-11-20T15:47:46;8.70;99.90
14473;DHT22;7322;50.872;4.386;2022-11-20T15:50:17;8.70;99.90
14473;DHT22;7322;50.872;4.386;2022-11-20T15:53:02;8.70;99.90
14473;DHT22;7322;50.872;4.386;2022-11-20T15:55:31;8.70;99.90
14473;DHT22;7322;50.872;4.386;2022-11-20T15:58:04;8.70;99.90
14473;DHT22;7322;50.872;4.386;2022-11-20T16:00:33;8.80;99.90
14473;DHT22;7322;50.872;4.386;2022-11-20T16:03:01;8.80;99.90
14473;DHT22;7322;50.872;4.386;2022-11-20T16:05:31;8.80;99.90
14473;DHT22;7322;50.872;4.386;2022-11-20T16:14:49;8.90;99.90
14473;DHT22;7322;50.872;4.386;2022-11-20T16:17:41;8.90;99.90
14473;DHT22;7322;50.872;4.386;2022-11-20T16:20:11;8.90;99.90
14473;DHT22;7322;50.872;4.386;2022-11-20T16:22:39;8.90;99.90
14473;DHT22;7322;50.872;4.386;2022-11-20T16:25:08;8.90;99.90
14473;DHT22;7322;50.872;4.386;2022-11-20T16:27:38;8.90;99.90
14473;DHT22;7322;50.872;4.386;2022-11-20T16:30:09;8.80;99.90
14473;DHT22;7322;50.872;4.386;2022-11-20T16:32:36;8.80;99.90
14473;DHT22;7322;50.872;4.386;2022-11-20T16:35:05;8.80;99.90
14473;DHT22;7322;50.872;4.386;2022-11-20T16:37:38;8.80;99.90
14473;DHT22;7322;50.872;4.386;2022-11-20T16:40:05;8.70;99.90
14473;DHT22;7322;50.872;4.386;2022-11-20T16:42:34;8.70;99.90
14473;DHT22;7322;50.872;4.386;2022-11-20T16:45:04;8.70;99.90
14473;DHT22;7322;50.872;4.386;2022-11-20T16:47:55;8.70;99.90
14473;DHT22;7322;50.872;4.386;2022-11-20T16:50:26;8.80;99.90
14473;DHT22;7322;50.872;4.386;2022-11-20T16:52:55;8.80;99.90
14473;DHT22;7322;50.872;4.386;2022-11-20T16:55:22;8.70;99.90
14473;DHT22;7322;50.872;4.386;2022-11-20T16:57:49;8.70;99.90
14473;DHT22;7322;50.872;4.386;2022-11-20T17:00:18;8.70;99.90
14473;DHT22;7322;50.872;4.386;2022-11-20T17:02:45;8.70;99.90
14473;DHT22;7322;50.872;4.386;2022-11-20T17:05:16;8.60;99.90
14473;DHT22;7322;50.872;4.386;2022-11-20T17:07:47;8.60;99.90
14473;DHT22;7322;50.872;4.386;2022-11-20T17:10:15;8.00;99.90
14473;DHT22;7322;50.872;4.386;2022-11-20T17:13:01;7.40;99.90
14473;DHT22;7322;50.872;4.386;2022-11-20T17:15:30;7.20;99.90
14473;DHT22;7322;50.872;4.386;2022-11-20T17:18:13;7.30;99.90
14473;DHT22;7322;50.872;4.386;2022-11-20T17:20:50;7.40;99.90
14473;DHT22;7322;50.872;4.386;2022-11-20T17:23:19;7.50;99.90
14473;DHT22;7322;50.872;4.386;2022-11-20T17:25:49;7.50;99.90
14473;DHT22;7322;50.872;4.386;2022-11-20T17:28:22;7.50;99.90
14473;DHT22;7322;50.872;4.386;2022-11-20T17:30:59;7.60;99.90
14473;DHT22;7322;50.872;4.386;2022-11-20T17:33:28;7.60;99.90
14473;DHT22;7322;50.872;4.386;2022-11-20T17:35:58;7.50;99.90
14473;DHT22;7322;50.872;4.386;2022-11-20T17:38:25;6.80;99.90
14473;DHT22;7322;50.872;4.386;2022-11-20T17:40:53;6.50;99.90
14473;DHT22;7322;50.872;4.386;2022-11-20T17:43:20;6.50;99.90
14473;DHT22;7322;50.872;4.386;2022-11-20T17:45:47;6.50;99.90
14473;DHT22;7322;50.872;4.386;2022-11-20T17:48:22;6.70;99.90
14473;DHT22;7322;50.872;4.386;2022-11-20T17:50:49;6.80;99.90
14473;DHT22;7322;50.872;4.386;2022-11-20T17:53:19;6.80;99.90
14473;DHT22;7322;50.872;4.386;2022-11-20T17:55:54;6.70;99.90
14473;DHT22;7322;50.872;4.386;2022-11-20T17:58:40;6.70;99.90